Time;durP1;ratioP1;P1;durP2;ratioP2;P2;SDS_P1;SDS_P2;PMS_P1;PMS_P2;Temp;Humidity;BMP_temperature;BMP_pressure;BME280_temperature;BME280_humidity;BME280_pressure;Samples;Min_cycle;Max_cycle;Signal;HPM_P1;HPM_P2
2023/12/30 00:01:47;;;;;;;237.27;119.00;;;;;;;;;;5174230;27;319454;-79
2023/12/30 00:04:14;;;;;;;248.27;125.30;;;;;;;;;;5185850;27;320679;-79
2023/12/30 00:06:43;;;;;;;244.17;132.00;;;;;;;;;;5174275;27;320347;-79
2023/12/30 00:09:10;;;;;;;357.50;163.63;;;;;;;;;;5179547;27;320274;-79
2023/12/30 00:11:37;;;;;;;367.80;174.97;;;;;;;;;;5172445;27;320506;-79
2023/12/30 00:14:03;;;;;;;266.97;138.90;;;;;;;;;;5185321;27;320228;-79
2023/12/30 00:16:32;;;;;;;235.17;124.73;;;;;;;;;;5181908;27;319425;-79
2023/12/30 00:18:58;;;;;;;266.33;138.20;;;;;;;;;;5165552;27;327025;-79
2023/12/30 00:21:25;;;;;;;259.47;137.20;;;;;;;;;;5186490;27;320442;-79
2023/12/30 00:23:52;;;;;;;271.50;144.77;;;;;;;;;;5173061;27;320389;-79
2023/12/30 00:26:22;;;;;;;263.30;137.07;;;;;;;;;;5181907;27;320896;-79
2023/12/30 00:28:49;;;;;;;259.10;134.90;;;;;;;;;;5168821;27;332585;-79
2023/12/30 00:31:23;;;;;;;238.70;127.77;;;;;;;;;;5184517;27;320010;-79
2023/12/30 00:33:52;;;;;;;247.67;132.60;;;;;;;;;;5164073;27;320432;-79
2023/12/30 00:36:31;;;;;;;240.90;130.30;;;;;;;;;;5183035;27;320529;-79
2023/12/30 00:39:03;;;;;;;254.37;134.37;;;;;;;;;;5170729;27;420249;-79
2023/12/30 00:41:31;;;;;;;245.30;138.73;;;;;;;;;;5170747;27;320453;-79
2023/12/30 00:43:58;;;;;;;245.53;137.40;;;;;;;;;;5150053;27;350369;-79
2023/12/30 00:46:25;;;;;;;252.13;134.73;;;;;;;;;;5187011;27;320134;-79
2023/12/30 00:48:53;;;;;;;261.87;139.40;;;;;;;;;;5174043;27;320279;-79
2023/12/30 00:51:20;;;;;;;310.40;162.93;;;;;;;;;;5187202;27;319451;-81
2023/12/30 00:53:47;;;;;;;269.60;143.27;;;;;;;;;;5167827;27;320317;-79
2023/12/30 00:56:16;;;;;;;238.93;128.93;;;;;;;;;;5185928;27;318507;-80
2023/12/30 00:58:46;;;;;;;229.13;123.53;;;;;;;;;;5165364;27;319900;-79
2023/12/30 01:01:13;;;;;;;243.03;127.90;;;;;;;;;;5183627;27;318524;-79
2023/12/30 01:03:41;;;;;;;358.07;165.17;;;;;;;;;;5151216;27;319661;-79
2023/12/30 01:06:12;;;;;;;343.97;161.43;;;;;;;;;;5180856;27;320223;-79
2023/12/30 01:11:21;;;;;;;307.40;162.80;;;;;;;;;;5185035;27;335264;-79
2023/12/30 01:13:48;;;;;;;320.00;166.57;;;;;;;;;;5166876;27;320138;-80
2023/12/30 01:16:15;;;;;;;286.73;153.67;;;;;;;;;;5188692;27;320508;-79
2023/12/30 01:18:42;;;;;;;293.23;153.60;;;;;;;;;;5176695;27;320052;-79
2023/12/30 01:21:10;;;;;;;291.10;152.27;;;;;;;;;;5185754;27;320173;-79
2023/12/30 01:23:39;;;;;;;273.00;146.50;;;;;;;;;;5173079;27;320187;-79
2023/12/30 01:26:18;;;;;;;295.23;153.33;;;;;;;;;;5187600;27;319451;-79
2023/12/30 01:28:45;;;;;;;295.17;153.97;;;;;;;;;;5176132;27;320518;-79
2023/12/30 01:31:14;;;;;;;292.97;151.43;;;;;;;;;;5182975;27;320258;-79
2023/12/30 01:33:40;;;;;;;274.63;148.77;;;;;;;;;;5167697;27;320078;-79
2023/12/30 01:36:08;;;;;;;284.93;151.00;;;;;;;;;;5185471;27;320406;-79
2023/12/30 01:38:36;;;;;;;289.00;158.17;;;;;;;;;;5176756;27;320423;-79
2023/12/30 01:41:02;;;;;;;286.93;154.30;;;;;;;;;;5189561;27;320510;-79
2023/12/30 01:43:31;;;;;;;424.07;218.93;;;;;;;;;;5176109;27;320228;-79
2023/12/30 01:45:59;;;;;;;621.10;352.27;;;;;;;;;;5181201;27;320335;-79
2023/12/30 01:48:26;;;;;;;549.97;293.47;;;;;;;;;;5189618;27;319709;-80
2023/12/30 01:50:54;;;;;;;512.33;266.83;;;;;;;;;;5174164;27;330138;-79
2023/12/30 01:53:22;;;;;;;469.60;243.17;;;;;;;;;;5190579;27;319687;-79
2023/12/30 01:55:51;;;;;;;437.83;218.80;;;;;;;;;;5171175;27;320496;-79
2023/12/30 01:58:19;;;;;;;435.20;218.27;;;;;;;;;;5190359;27;320188;-79
2023/12/30 02:00:48;;;;;;;341.23;169.33;;;;;;;;;;5174021;27;320147;-79
2023/12/30 02:03:15;;;;;;;275.33;147.77;;;;;;;;;;5190053;27;320317;-79
2023/12/30 02:05:42;;;;;;;241.53;127.53;;;;;;;;;;5167567;27;320294;-79
2023/12/30 02:08:09;;;;;;;239.37;126.83;;;;;;;;;;5186685;27;319649;-79
2023/12/30 02:10:36;;;;;;;220.63;118.43;;;;;;;;;;5178786;27;328647;-79
2023/12/30 02:13:04;;;;;;;204.20;109.00;;;;;;;;;;5190681;27;319527;-79
2023/12/30 02:15:31;;;;;;;176.17;95.23;;;;;;;;;;5175955;27;320932;-79
2023/12/30 02:18:00;;;;;;;164.33;86.63;;;;;;;;;;5177257;27;359531;-79
2023/12/30 02:20:26;;;;;;;217.70;111.53;;;;;;;;;;5185650;27;319334;-80
2023/12/30 02:22:54;;;;;;;206.23;109.00;;;;;;;;;;5177102;27;320271;-79
2023/12/30 02:25:21;;;;;;;211.43;111.83;;;;;;;;;;5188700;27;320230;-79
2023/12/30 02:27:48;;;;;;;213.50;114.03;;;;;;;;;;5170346;27;336208;-79
2023/12/30 02:30:15;;;;;;;223.80;119.30;;;;;;;;;;5186885;27;320303;-79
2023/12/30 02:32:42;;;;;;;220.47;116.00;;;;;;;;;;5176717;27;320294;-79
2023/12/30 02:35:09;;;;;;;207.57;105.70;;;;;;;;;;5189716;27;320188;-79
2023/12/30 02:37:36;;;;;;;197.73;105.13;;;;;;;;;;5177949;27;320398;-79
2023/12/30 02:40:05;;;;;;;163.77;86.87;;;;;;;;;;5179499;27;320208;-79
2023/12/30 02:42:32;;;;;;;150.87;80.97;;;;;;;;;;5176504;27;319157;-80
2023/12/30 02:44:59;;;;;;;175.73;92.63;;;;;;;;;;5188711;27;319126;-79
2023/12/30 02:47:25;;;;;;;178.23;93.33;;;;;;;;;;5185032;27;318650;-79
2023/12/30 02:49:52;;;;;;;160.67;76.97;;;;;;;;;;5166140;27;319116;-79
2023/12/30 02:52:19;;;;;;;143.10;74.90;;;;;;;;;;5186345;27;319366;-79
2023/12/30 02:54:45;;;;;;;144.00;69.83;;;;;;;;;;5175844;27;319074;-79
2023/12/30 02:57:13;;;;;;;129.50;62.60;;;;;;;;;;5189974;27;356835;-79
2023/12/30 02:59:40;;;;;;;94.00;49.97;;;;;;;;;;5163740;27;330326;-79
2023/12/30 03:02:07;;;;;;;93.47;50.67;;;;;;;;;;5187531;27;318179;-79
2023/12/30 03:04:34;;;;;;;100.20;53.83;;;;;;;;;;5176093;27;317448;-79
2023/12/30 03:07:01;;;;;;;97.30;51.53;;;;;;;;;;5186237;27;318616;-79
2023/12/30 03:09:27;;;;;;;88.80;51.73;;;;;;;;;;5188485;27;317376;-79
2023/12/30 03:11:54;;;;;;;88.00;49.13;;;;;;;;;;5166384;27;416797;-79
2023/12/30 03:14:22;;;;;;;84.20;47.40;;;;;;;;;;5189877;27;318184;-79
2023/12/30 03:16:49;;;;;;;80.03;44.77;;;;;;;;;;5176670;27;318302;-79
2023/12/30 03:19:19;;;;;;;89.97;49.00;;;;;;;;;;5191448;27;317953;-79
2023/12/30 03:21:49;;;;;;;235.53;111.63;;;;;;;;;;5181508;27;317758;-79
2023/12/30 03:24:20;;;;;;;252.30;115.83;;;;;;;;;;5205645;27;319831;-79
2023/12/30 03:26:53;;;;;;;228.03;107.17;;;;;;;;;;5192437;27;317491;-79
2023/12/30 03:29:29;;;;;;;217.40;105.53;;;;;;;;;;5202604;27;318887;-79
2023/12/30 03:31:59;;;;;;;151.37;84.20;;;;;;;;;;5135263;27;419519;-79
2023/12/30 03:34:28;;;;;;;196.93;96.93;;;;;;;;;;5188012;27;318464;-81
2023/12/30 03:36:58;;;;;;;194.27;94.77;;;;;;;;;;5177433;27;319272;-79
2023/12/30 03:42:10;;;;;;;394.40;159.67;;;;;;;;;;5172336;27;391419;-79
2023/12/30 03:44:44;;;;;;;294.03;127.87;;;;;;;;;;5177420;27;320294;-79
2023/12/30 03:47:11;;;;;;;469.77;189.73;;;;;;;;;;5184831;27;319861;-79
2023/12/30 03:49:37;;;;;;;338.60;137.50;;;;;;;;;;5173854;27;320108;-79
2023/12/30 03:52:04;;;;;;;278.57;121.30;;;;;;;;;;5182981;27;320134;-81
2023/12/30 03:54:31;;;;;;;259.50;111.50;;;;;;;;;;5173192;27;348378;-79
2023/12/30 03:56:58;;;;;;;240.77;103.30;;;;;;;;;;5186537;27;320418;-79
2023/12/30 03:59:25;;;;;;;211.13;99.47;;;;;;;;;;5185836;27;319473;-79
2023/12/30 04:01:58;;;;;;;204.83;95.90;;;;;;;;;;5163259;27;319369;-80
2023/12/30 04:04:25;;;;;;;222.43;96.50;;;;;;;;;;5170775;27;318304;-79
2023/12/30 04:06:52;;;;;;;198.50;94.13;;;;;;;;;;5176292;27;319475;-79
2023/12/30 04:09:25;;;;;;;163.17;77.47;;;;;;;;;;5175136;27;319187;-79
2023/12/30 04:11:55;;;;;;;232.50;100.20;;;;;;;;;;5168081;27;318425;-79
2023/12/30 04:14:26;;;;;;;270.77;113.27;;;;;;;;;;5187070;27;320299;-80
2023/12/30 04:16:57;;;;;;;329.50;128.07;;;;;;;;;;5160703;27;362191;-80
2023/12/30 04:19:28;;;;;;;181.80;83.03;;;;;;;;;;5186251;27;320039;-80
2023/12/30 04:22:00;;;;;;;172.03;84.80;;;;;;;;;;5163314;27;418546;-79
2023/12/30 04:24:27;;;;;;;223.10;97.67;;;;;;;;;;5187135;27;318675;-77
2023/12/30 04:26:53;;;;;;;370.03;153.57;;;;;;;;;;5169460;27;419734;-80
2023/12/30 04:29:20;;;;;;;335.53;141.63;;;;;;;;;;5185866;27;320508;-80
2023/12/30 04:31:47;;;;;;;250.73;111.27;;;;;;;;;;5166993;27;320122;-80
2023/12/30 04:34:15;;;;;;;229.30;98.57;;;;;;;;;;5185319;27;320372;-79
2023/12/30 04:36:44;;;;;;;199.70;93.03;;;;;;;;;;5174357;27;318683;-80
2023/12/30 04:39:12;;;;;;;169.40;86.67;;;;;;;;;;5187768;27;318466;-80
2023/12/30 04:41:39;;;;;;;151.80;79.43;;;;;;;;;;5167539;27;319582;-79
2023/12/30 04:44:06;;;;;;;144.57;71.43;;;;;;;;;;5186517;27;318457;-79
2023/12/30 04:46:33;;;;;;;112.23;62.43;;;;;;;;;;5165588;27;318658;-79
2023/12/30 04:49:02;;;;;;;87.13;50.80;;;;;;;;;;5186456;27;319282;-80
2023/12/30 04:51:36;;;;;;;98.57;51.87;;;;;;;;;;5175806;27;318296;-80
2023/12/30 04:54:03;;;;;;;149.60;71.97;;;;;;;;;;5183089;27;318013;-79
2023/12/30 04:56:33;;;;;;;154.03;73.40;;;;;;;;;;5176786;27;319347;-79
2023/12/30 04:59:03;;;;;;;154.37;77.37;;;;;;;;;;5188429;27;318430;-79
2023/12/30 05:01:36;;;;;;;169.50;87.30;;;;;;;;;;5177481;27;319348;-77
2023/12/30 05:04:03;;;;;;;169.37;78.17;;;;;;;;;;5184822;27;319143;-78
2023/12/30 05:06:36;;;;;;;161.03;83.57;;;;;;;;;;5173559;27;398502;-78
2023/12/30 05:09:06;;;;;;;176.30;78.97;;;;;;;;;;5188315;27;319181;-78
2023/12/30 05:11:35;;;;;;;168.17;82.67;;;;;;;;;;5175158;27;319487;-78
2023/12/30 05:14:04;;;;;;;244.03;110.83;;;;;;;;;;5182009;27;318178;-78
2023/12/30 05:16:33;;;;;;;318.40;140.67;;;;;;;;;;5175885;27;320317;-78
2023/12/30 05:18:59;;;;;;;315.53;136.80;;;;;;;;;;5185979;27;320561;-78
2023/12/30 05:21:26;;;;;;;324.77;136.73;;;;;;;;;;5187639;27;320161;-78
2023/12/30 05:23:55;;;;;;;276.13;119.30;;;;;;;;;;5169324;27;319702;-79
2023/12/30 05:26:22;;;;;;;160.33;79.80;;;;;;;;;;5187814;27;320280;-78
2023/12/30 05:28:48;;;;;;;150.63;75.20;;;;;;;;;;5175578;27;321554;-79
2023/12/30 05:31:15;;;;;;;159.43;77.63;;;;;;;;;;5159705;27;318776;-80
2023/12/30 05:33:42;;;;;;;181.50;85.07;;;;;;;;;;5169353;27;318648;-79
2023/12/30 05:36:09;;;;;;;312.13;130.80;;;;;;;;;;5187190;27;318663;-78
2023/12/30 05:38:36;;;;;;;308.50;132.40;;;;;;;;;;5176694;27;320441;-80
2023/12/30 05:41:04;;;;;;;229.53;112.33;;;;;;;;;;5188061;27;320322;-79
2023/12/30 05:43:31;;;;;;;163.87;76.93;;;;;;;;;;5176511;27;320165;-79
2023/12/30 05:45:57;;;;;;;155.67;76.10;;;;;;;;;;5179793;27;318734;-79
2023/12/30 05:48:24;;;;;;;187.70;82.80;;;;;;;;;;5188266;27;319345;-79
2023/12/30 05:50:51;;;;;;;193.50;85.60;;;;;;;;;;5173465;27;319277;-79
2023/12/30 05:53:18;;;;;;;173.13;78.43;;;;;;;;;;5187576;27;319509;-80
2023/12/30 05:55:44;;;;;;;164.60;76.50;;;;;;;;;;5168023;27;319652;-78
2023/12/30 05:58:12;;;;;;;217.20;98.30;;;;;;;;;;5188571;27;319588;-78
2023/12/30 06:00:43;;;;;;;240.77;104.23;;;;;;;;;;5172919;27;319565;-79
2023/12/30 06:03:13;;;;;;;145.77;74.50;;;;;;;;;;5177168;27;320466;-79
2023/12/30 06:05:39;;;;;;;163.33;76.73;;;;;;;;;;5159571;27;319160;-80
2023/12/30 06:08:06;;;;;;;178.73;80.83;;;;;;;;;;5183755;27;319346;-79
2023/12/30 06:10:33;;;;;;;100.57;54.80;;;;;;;;;;5147170;27;319297;-79
2023/12/30 06:13:04;;;;;;;107.80;57.57;;;;;;;;;;5187621;27;318940;-80
2023/12/30 06:15:33;;;;;;;95.07;47.20;;;;;;;;;;5174865;27;317939;-78
2023/12/30 06:18:03;;;;;;;97.20;51.00;;;;;;;;;;5159287;27;317630;-79
2023/12/30 06:20:34;;;;;;;87.70;47.13;;;;;;;;;;5174824;27;362286;-79
2023/12/30 06:23:05;;;;;;;94.73;49.03;;;;;;;;;;5188068;27;317225;-79
2023/12/30 06:25:33;;;;;;;107.00;52.50;;;;;;;;;;5175141;27;317797;-79
2023/12/30 06:28:04;;;;;;;108.17;53.73;;;;;;;;;;5181641;27;318921;-79
2023/12/30 06:30:33;;;;;;;93.73;51.33;;;;;;;;;;5174094;27;340704;-78
2023/12/30 06:33:06;;;;;;;121.57;59.13;;;;;;;;;;5179872;27;316977;-78
2023/12/30 06:35:35;;;;;;;109.50;59.50;;;;;;;;;;5166759;27;318808;-79
2023/12/30 06:38:02;;;;;;;129.50;65.27;;;;;;;;;;5178586;27;319035;-79
2023/12/30 06:40:29;;;;;;;126.73;57.63;;;;;;;;;;5177840;27;319597;-78
2023/12/30 06:42:56;;;;;;;136.03;65.20;;;;;;;;;;5193520;27;318622;-77
2023/12/30 06:45:23;;;;;;;146.70;66.90;;;;;;;;;;5192183;27;319366;-78
2023/12/30 06:47:51;;;;;;;143.87;69.23;;;;;;;;;;5169070;27;319518;-78
2023/12/30 06:50:20;;;;;;;142.53;65.93;;;;;;;;;;5188276;27;319302;-78
2023/12/30 06:52:46;;;;;;;157.20;76.83;;;;;;;;;;5176859;27;319225;-79
2023/12/30 06:55:14;;;;;;;183.03;90.67;;;;;;;;;;5188961;27;319277;-78
2023/12/30 06:57:41;;;;;;;158.17;76.37;;;;;;;;;;5171317;27;319583;-78
2023/12/30 07:00:09;;;;;;;140.87;65.60;;;;;;;;;;5189184;27;319347;-78
2023/12/30 07:02:36;;;;;;;261.70;95.07;;;;;;;;;;5175334;27;318685;-78
2023/12/30 07:05:04;;;;;;;155.17;71.70;;;;;;;;;;5188040;27;318701;-79
2023/12/30 07:07:31;;;;;;;172.80;74.73;;;;;;;;;;5176857;27;319261;-79
2023/12/30 07:09:58;;;;;;;174.83;79.90;;;;;;;;;;5180338;27;319238;-79
2023/12/30 07:12:24;;;;;;;145.43;71.03;;;;;;;;;;5186233;27;319561;-80
2023/12/30 07:14:52;;;;;;;143.10;72.37;;;;;;;;;;5177451;27;319102;-79
2023/12/30 07:17:18;;;;;;;214.67;94.37;;;;;;;;;;5190217;27;319548;-79
2023/12/30 07:19:45;;;;;;;190.37;81.03;;;;;;;;;;5170608;27;319535;-79
2023/12/30 07:22:13;;;;;;;199.27;93.93;;;;;;;;;;5189224;27;319215;-79
2023/12/30 07:24:40;;;;;;;186.10;92.57;;;;;;;;;;5176804;27;318720;-79
2023/12/30 07:27:07;;;;;;;188.00;90.27;;;;;;;;;;5188413;27;319264;-79
2023/12/30 07:29:34;;;;;;;197.17;92.43;;;;;;;;;;5174105;27;341213;-79
2023/12/30 07:32:01;;;;;;;206.27;100.50;;;;;;;;;;5181264;27;319613;-79
2023/12/30 07:34:28;;;;;;;183.03;87.70;;;;;;;;;;5186723;27;355921;-79
2023/12/30 07:36:56;;;;;;;157.50;78.33;;;;;;;;;;5173465;27;417994;-79
2023/12/30 07:39:24;;;;;;;170.13;79.93;;;;;;;;;;5189394;27;319832;-79
2023/12/30 07:41:50;;;;;;;144.97;74.20;;;;;;;;;;5169609;27;347622;-79
2023/12/30 07:44:17;;;;;;;126.67;68.00;;;;;;;;;;5187838;27;319316;-80
2023/12/30 07:46:44;;;;;;;119.57;60.67;;;;;;;;;;5176882;27;318507;-79
2023/12/30 07:49:11;;;;;;;106.13;56.03;;;;;;;;;;5186480;27;319383;-79
2023/12/30 07:51:38;;;;;;;89.37;50.67;;;;;;;;;;5174855;27;319410;-79
2023/12/30 07:54:05;;;;;;;100.50;52.90;;;;;;;;;;5178582;27;318440;-79
2023/12/30 07:56:33;;;;;;;99.93;50.23;;;;;;;;;;5173625;27;325194;-80
2023/12/30 07:59:00;;;;;;;97.37;52.23;;;;;;;;;;5187961;27;318710;-79
2023/12/30 08:01:26;;;;;;;112.80;56.63;;;;;;;;;;5186134;27;317613;-79
2023/12/30 08:03:53;;;;;;;101.20;58.77;;;;;;;;;;5167867;27;319217;-80
2023/12/30 08:06:20;;;;;;;104.73;61.53;;;;;;;;;;5187424;27;319034;-80
2023/12/30 08:08:47;;;;;;;128.27;70.87;;;;;;;;;;5173961;27;319396;-80
2023/12/30 08:11:14;;;;;;;113.40;64.33;;;;;;;;;;5188120;27;318496;-81
2023/12/30 08:13:42;;;;;;;121.27;70.67;;;;;;;;;;5166693;27;319286;-80
2023/12/30 08:16:09;;;;;;;118.40;70.60;;;;;;;;;;5186486;27;318739;-78
2023/12/30 08:18:35;;;;;;;134.60;76.17;;;;;;;;;;5174753;27;319562;-78
2023/12/30 08:21:02;;;;;;;140.00;78.10;;;;;;;;;;5187020;27;318738;-78
2023/12/30 08:23:29;;;;;;;146.57;81.50;;;;;;;;;;5177703;27;319177;-78
2023/12/30 08:25:56;;;;;;;124.70;67.97;;;;;;;;;;5176743;27;319659;-80
2023/12/30 08:28:22;;;;;;;99.43;59.30;;;;;;;;;;5188054;27;319193;-80
2023/12/30 08:30:53;;;;;;;105.63;59.30;;;;;;;;;;5176995;27;317965;-78
2023/12/30 08:33:20;;;;;;;107.80;58.73;;;;;;;;;;5190005;27;319449;-79
2023/12/30 08:35:48;;;;;;;108.17;59.50;;;;;;;;;;5170930;27;319615;-79
2023/12/30 08:38:15;;;;;;;108.83;65.30;;;;;;;;;;5189915;27;318618;-79
2023/12/30 08:40:42;;;;;;;132.20;71.67;;;;;;;;;;5176235;27;319346;-79
2023/12/30 08:43:10;;;;;;;133.43;76.97;;;;;;;;;;5187689;27;318472;-79
2023/12/30 08:45:37;;;;;;;133.90;74.83;;;;;;;;;;5175385;27;319326;-79
2023/12/30 08:48:06;;;;;;;129.00;71.60;;;;;;;;;;5186009;27;319202;-80
2023/12/30 08:50:33;;;;;;;141.43;77.47;;;;;;;;;;5176960;27;319352;-80
2023/12/30 08:52:59;;;;;;;147.70;80.27;;;;;;;;;;5189419;27;319700;-79
2023/12/30 08:55:26;;;;;;;159.70;84.53;;;;;;;;;;5188873;27;319058;-79
2023/12/30 08:57:53;;;;;;;163.43;90.97;;;;;;;;;;5169944;27;319536;-79
2023/12/30 09:00:20;;;;;;;149.37;83.20;;;;;;;;;;5187072;27;318629;-79
2023/12/30 09:02:48;;;;;;;148.83;85.00;;;;;;;;;;5178990;27;319248;-79
2023/12/30 09:05:18;;;;;;;157.47;86.57;;;;;;;;;;5189656;27;319407;-79
2023/12/30 09:07:45;;;;;;;138.83;80.83;;;;;;;;;;5170976;27;319141;-79
2023/12/30 09:10:12;;;;;;;159.27;84.83;;;;;;;;;;5190778;27;319225;-79
2023/12/30 09:12:38;;;;;;;163.27;91.00;;;;;;;;;;5178981;27;319207;-79
2023/12/30 09:15:06;;;;;;;177.67;94.50;;;;;;;;;;5184994;27;319302;-79
2023/12/30 09:17:33;;;;;;;177.80;96.90;;;;;;;;;;5174699;27;319279;-79
2023/12/30 09:19:59;;;;;;;161.50;90.97;;;;;;;;;;5183614;27;318535;-79
2023/12/30 09:22:28;;;;;;;169.27;92.33;;;;;;;;;;5191270;27;318525;-79
2023/12/30 09:24:55;;;;;;;176.57;93.90;;;;;;;;;;5175114;27;419145;-79
2023/12/30 09:27:22;;;;;;;162.07;93.33;;;;;;;;;;5196438;27;318940;-79
2023/12/30 09:29:49;;;;;;;175.02;96.10;;;;;;;;;;5173171;27;320441;-79
2023/12/30 09:32:15;;;;;;;152.80;88.33;;;;;;;;;;5189610;27;318999;-79
2023/12/30 09:34:42;;;;;;;136.70;80.23;;;;;;;;;;5178227;27;319248;-79
2023/12/30 09:37:09;;;;;;;142.23;84.13;;;;;;;;;;5203008;27;319010;-78
2023/12/30 09:39:37;;;;;;;135.23;78.37;;;;;;;;;;5196586;27;318481;-78
2023/12/30 09:42:04;;;;;;;95.43;55.87;;;;;;;;;;5199912;27;317767;-79
2023/12/30 09:44:32;;;;;;;86.87;53.67;;;;;;;;;;5191781;27;358410;-79
2023/12/30 09:47:02;;;;;;;81.53;50.07;;;;;;;;;;5208304;27;316321;-79
2023/12/30 09:49:34;;;;;;;81.97;47.90;;;;;;;;;;5205443;27;340928;-79
2023/12/30 09:52:02;;;;;;;81.20;48.07;;;;;;;;;;5171792;27;417678;-79
2023/12/30 09:54:29;;;;;;;74.27;42.23;;;;;;;;;;5178019;27;318270;-79
2023/12/30 09:56:58;;;;;;;102.13;55.57;;;;;;;;;;5193974;27;318170;-79
2023/12/30 09:59:26;;;;;;;97.43;58.13;;;;;;;;;;5201253;27;317143;-79
2023/12/30 10:01:54;;;;;;;82.40;47.67;;;;;;;;;;5182192;27;317675;-78
2023/12/30 10:04:21;;;;;;;91.03;49.13;;;;;;;;;;5200177;27;343215;-80
2023/12/30 10:06:50;;;;;;;99.63;57.60;;;;;;;;;;5180125;27;318050;-80
2023/12/30 10:09:18;;;;;;;93.10;56.13;;;;;;;;;;5187049;27;318254;-80
2023/12/30 10:11:45;;;;;;;72.87;46.97;;;;;;;;;;5166964;27;318378;-79
2023/12/30 10:14:13;;;;;;;82.43;42.60;;;;;;;;;;5187819;27;317443;-81
2023/12/30 10:16:40;;;;;;;84.63;52.17;;;;;;;;;;5175729;27;317944;-80
2023/12/30 10:19:09;;;;;;;110.60;66.43;;;;;;;;;;5186359;27;318209;-79
2023/12/30 10:21:37;;;;;;;131.60;75.63;;;;;;;;;;5174084;27;319227;-80
2023/12/30 10:24:04;;;;;;;123.50;72.83;;;;;;;;;;5185054;27;319365;-79
2023/12/30 10:26:31;;;;;;;113.33;69.97;;;;;;;;;;5173371;27;319092;-79
2023/12/30 10:28:58;;;;;;;100.03;60.57;;;;;;;;;;5188029;27;356311;-79
2023/12/30 10:31:26;;;;;;;103.57;64.10;;;;;;;;;;5190434;27;318491;-79
2023/12/30 10:33:54;;;;;;;110.23;66.57;;;;;;;;;;5174950;27;319085;-79
2023/12/30 10:36:21;;;;;;;110.63;65.93;;;;;;;;;;5194753;27;319172;-79
2023/12/30 10:38:48;;;;;;;110.80;65.73;;;;;;;;;;5182203;27;319005;-79
2023/12/30 10:41:15;;;;;;;119.10;67.10;;;;;;;;;;5189483;27;326423;-79
2023/12/30 10:43:42;;;;;;;109.53;65.03;;;;;;;;;;5169483;27;319042;-79
2023/12/30 10:46:12;;;;;;;106.53;62.13;;;;;;;;;;5194870;27;319112;-79
2023/12/30 10:48:47;;;;;;;116.20;67.17;;;;;;;;;;5182138;27;318680;-80
2023/12/30 10:51:16;;;;;;;114.23;68.87;;;;;;;;;;5189122;27;319127;-80
2023/12/30 10:53:49;;;;;;;111.37;67.97;;;;;;;;;;5173314;27;320435;-79
2023/12/30 10:56:23;;;;;;;114.73;70.10;;;;;;;;;;5192716;27;318929;-79
2023/12/30 10:58:51;;;;;;;100.50;63.13;;;;;;;;;;5179084;27;319094;-80
2023/12/30 11:01:20;;;;;;;103.20;62.27;;;;;;;;;;5192249;27;319051;-79
2023/12/30 11:03:49;;;;;;;87.80;54.10;;;;;;;;;;5176682;27;318221;-80
2023/12/30 11:06:23;;;;;;;84.00;55.40;;;;;;;;;;5197075;27;317248;-78
2023/12/30 11:08:52;;;;;;;98.87;59.00;;;;;;;;;;5191175;27;318342;-79
2023/12/30 11:11:19;;;;;;;87.83;59.47;;;;;;;;;;5205469;27;316647;-80
2023/12/30 11:13:47;;;;;;;96.53;61.17;;;;;;;;;;5183577;27;317746;-79
2023/12/30 11:16:15;;;;;;;91.93;57.07;;;;;;;;;;5203490;27;317262;-79
2023/12/30 11:18:51;;;;;;;102.30;60.10;;;;;;;;;;5190150;27;318018;-79
2023/12/30 11:21:38;;;;;;;97.37;61.60;;;;;;;;;;5200891;27;318123;-80
2023/12/30 11:24:07;;;;;;;93.30;62.93;;;;;;;;;;5183482;27;417221;-79
2023/12/30 11:26:36;;;;;;;108.90;68.73;;;;;;;;;;5187430;27;318081;-79
2023/12/30 11:29:04;;;;;;;105.67;69.57;;;;;;;;;;5194471;27;359692;-79
2023/12/30 11:31:31;;;;;;;115.67;72.43;;;;;;;;;;5189183;27;317623;-79
2023/12/30 11:34:01;;;;;;;90.17;59.63;;;;;;;;;;5188812;27;318298;-79
2023/12/30 11:36:28;;;;;;;101.27;59.63;;;;;;;;;;5201064;27;317238;-79
2023/12/30 11:38:56;;;;;;;96.40;59.20;;;;;;;;;;5183586;27;417889;-80
2023/12/30 11:41:23;;;;;;;103.10;60.17;;;;;;;;;;5196943;27;317221;-79
2023/12/30 11:43:50;;;;;;;78.90;49.17;;;;;;;;;;5179505;27;318151;-81
2023/12/30 11:46:17;;;;;;;70.63;42.27;;;;;;;;;;5191951;27;317414;-79
2023/12/30 11:48:44;;;;;;;88.13;55.50;;;;;;;;;;5184453;27;317914;-79
2023/12/30 11:51:19;;;;;;;64.90;38.23;;;;;;;;;;5199672;27;317776;-79
2023/12/30 11:53:46;;;;;;;54.63;35.53;;;;;;;;;;5176818;27;318674;-79
2023/12/30 11:56:13;;;;;;;44.53;26.27;;;;;;;;;;5194683;27;317953;-79
2023/12/30 11:58:41;;;;;;;48.37;29.50;;;;;;;;;;5181143;27;333660;-79
2023/12/30 12:01:08;;;;;;;38.80;22.73;;;;;;;;;;5192865;27;317736;-79
2023/12/30 12:03:34;;;;;;;38.73;21.00;;;;;;;;;;5176746;27;318137;-80
2023/12/30 12:06:02;;;;;;;37.50;22.57;;;;;;;;;;5179898;27;317854;-79
2023/12/30 12:08:30;;;;;;;36.83;20.40;;;;;;;;;;5188495;27;318216;-81
2023/12/30 12:10:57;;;;;;;36.83;22.33;;;;;;;;;;5172408;27;418779;-80
2023/12/30 12:13:24;;;;;;;33.30;19.33;;;;;;;;;;5189619;27;318256;-81
2023/12/30 12:15:52;;;;;;;30.80;19.50;;;;;;;;;;5168091;27;318081;-79
2023/12/30 12:18:18;;;;;;;30.73;19.23;;;;;;;;;;5187898;27;318030;-79
2023/12/30 12:20:45;;;;;;;30.47;20.03;;;;;;;;;;5178195;27;318167;-80
2023/12/30 12:23:12;;;;;;;33.60;20.53;;;;;;;;;;5191262;27;317994;-80
2023/12/30 12:25:42;;;;;;;39.40;21.67;;;;;;;;;;5169963;27;318199;-79
2023/12/30 12:28:10;;;;;;;39.60;23.40;;;;;;;;;;5186466;27;318071;-80
2023/12/30 12:30:37;;;;;;;34.70;20.50;;;;;;;;;;5178930;27;318222;-79
2023/12/30 12:33:04;;;;;;;35.97;20.30;;;;;;;;;;5190863;27;317993;-81
2023/12/30 12:35:31;;;;;;;27.30;19.13;;;;;;;;;;5178934;27;317986;-80
2023/12/30 12:37:58;;;;;;;30.87;20.47;;;;;;;;;;5182632;27;318103;-80
2023/12/30 12:40:24;;;;;;;43.03;26.07;;;;;;;;;;5189399;27;318345;-80
2023/12/30 12:42:53;;;;;;;31.80;18.30;;;;;;;;;;5174581;27;318185;-81
2023/12/30 12:45:20;;;;;;;36.50;19.00;;;;;;;;;;5190157;27;318168;-79
2023/12/30 12:47:47;;;;;;;36.47;19.37;;;;;;;;;;5172555;27;318324;-80
2023/12/30 12:50:14;;;;;;;73.93;33.30;;;;;;;;;;5190963;27;318125;-79
2023/12/30 12:52:40;;;;;;;213.80;124.40;;;;;;;;;;5179103;27;318113;-81
2023/12/30 12:55:08;;;;;;;205.87;112.03;;;;;;;;;;5189574;27;319450;-80
2023/12/30 12:57:35;;;;;;;224.83;125.17;;;;;;;;;;5180223;27;320085;-81
2023/12/30 13:00:07;;;;;;;103.47;69.93;;;;;;;;;;5183099;27;320024;-80
2023/12/30 13:02:34;;;;;;;70.53;46.50;;;;;;;;;;5177894;27;319133;-80
2023/12/30 13:05:01;;;;;;;57.80;38.27;;;;;;;;;;5186977;27;342065;-80
2023/12/30 13:07:28;;;;;;;58.33;34.17;;;;;;;;;;5186505;27;318049;-81
2023/12/30 13:09:59;;;;;;;61.50;36.73;;;;;;;;;;5163662;27;417417;-81
2023/12/30 13:12:26;;;;;;;83.60;42.47;;;;;;;;;;5188420;27;317356;-80
2023/12/30 13:14:52;;;;;;;75.60;40.93;;;;;;;;;;5176937;27;318055;-80
2023/12/30 13:17:21;;;;;;;235.23;108.70;;;;;;;;;;5185457;27;317511;-80
2023/12/30 13:19:49;;;;;;;189.07;89.97;;;;;;;;;;5169381;27;320216;-80
2023/12/30 13:22:16;;;;;;;55.00;35.57;;;;;;;;;;5187638;27;318514;-80
2023/12/30 13:24:44;;;;;;;47.50;30.57;;;;;;;;;;5176524;27;318123;-81
2023/12/30 13:27:12;;;;;;;49.57;28.57;;;;;;;;;;5189466;27;319855;-81
2023/12/30 13:29:41;;;;;;;54.63;31.33;;;;;;;;;;5172790;27;318132;-82
2023/12/30 13:32:08;;;;;;;293.40;123.67;;;;;;;;;;5187245;27;317892;-79
2023/12/30 13:34:39;;;;;;;130.23;65.30;;;;;;;;;;5174703;27;320360;-80
2023/12/30 13:37:06;;;;;;;99.03;48.93;;;;;;;;;;5186398;27;319363;-81
2023/12/30 13:39:34;;;;;;;77.50;42.67;;;;;;;;;;5174357;27;317994;-80
2023/12/30 13:42:03;;;;;;;68.47;40.83;;;;;;;;;;5180347;27;318124;-79
2023/12/30 13:44:35;;;;;;;60.30;38.73;;;;;;;;;;5175632;27;318163;-79
2023/12/30 13:47:31;;;;;;;67.23;39.40;;;;;;;;;;5188187;27;317468;-80
2023/12/30 13:50:08;;;;;;;70.70;39.97;;;;;;;;;;5166845;27;358369;-79
2023/12/30 13:52:36;;;;;;;59.97;38.30;;;;;;;;;;5179135;27;318283;-79
2023/12/30 13:55:05;;;;;;;62.73;37.30;;;;;;;;;;5190242;27;318233;-79
2023/12/30 13:57:32;;;;;;;72.30;40.10;;;;;;;;;;5176864;27;318142;-81
2023/12/30 13:59:59;;;;;;;116.70;59.13;;;;;;;;;;5183115;27;318332;-79
2023/12/30 14:02:29;;;;;;;59.70;37.23;;;;;;;;;;5189054;27;357759;-81